sensor_id;sensor_type;location;lat;lon;timestamp;temperature;humidity
17986;DHT22;9118;48.122;11.546;2023-06-04T00:02:21;18.60;97.40
17986;DHT22;9118;48.122;11.546;2023-06-04T00:04:50;17.90;97.10
17986;DHT22;9118;48.122;11.546;2023-06-04T00:07:17;18.30;96.70
17986;DHT22;9118;48.122;11.546;2023-06-04T00:09:45;18.50;97.40
17986;DHT22;9118;48.122;11.546;2023-06-04T00:12:12;18.50;97.00
17986;DHT22;9118;48.122;11.546;2023-06-04T00:14:39;18.20;96.50
17986;DHT22;9118;48.122;11.546;2023-06-04T00:17:08;17.70;96.70
17986;DHT22;9118;48.122;11.546;2023-06-04T00:19:38;18.30;96.70
17986;DHT22;9118;48.122;11.546;2023-06-04T00:22:07;18.40;96.70
17986;DHT22;9118;48.122;11.546;2023-06-04T00:24:37;18.00;96.00
17986;DHT22;9118;48.122;11.546;2023-06-04T00:27:05;18.20;96.40
17986;DHT22;9118;48.122;11.546;2023-06-04T00:29:32;18.10;96.10
17986;DHT22;9118;48.122;11.546;2023-06-04T00:31:59;18.10;96.70
17986;DHT22;9118;48.122;11.546;2023-06-04T00:34:26;18.20;96.70
17986;DHT22;9118;48.122;11.546;2023-06-04T00:36:53;17.70;96.30
17986;DHT22;9118;48.122;11.546;2023-06-04T00:39:25;18.00;96.80
17986;DHT22;9118;48.122;11.546;2023-06-04T00:41:52;18.00;95.80
17986;DHT22;9118;48.122;11.546;2023-06-04T00:44:19;17.90;96.90
17986;DHT22;9118;48.122;11.546;2023-06-04T00:46:47;17.60;96.10
17986;DHT22;9118;48.122;11.546;2023-06-04T00:49:15;17.80;97.10
17986;DHT22;9118;48.122;11.546;2023-06-04T00:51:43;16.40;96.20
17986;DHT22;9118;48.122;11.546;2023-06-04T00:54:11;17.70;96.60
17986;DHT22;9118;48.122;11.546;2023-06-04T00:56:41;17.60;95.70
17986;DHT22;9118;48.122;11.546;2023-06-04T00:59:08;17.60;95.70
17986;DHT22;9118;48.122;11.546;2023-06-04T01:01:44;17.60;95.50
17986;DHT22;9118;48.122;11.546;2023-06-04T01:04:16;17.50;94.70
17986;DHT22;9118;48.122;11.546;2023-06-04T01:06:49;17.60;94.30
17986;DHT22;9118;48.122;11.546;2023-06-04T01:09:17;17.30;93.40
17986;DHT22;9118;48.122;11.546;2023-06-04T01:11:46;17.50;93.60
17986;DHT22;9118;48.122;11.546;2023-06-04T01:14:13;17.30;94.00
17986;DHT22;9118;48.122;11.546;2023-06-04T01:16:49;17.40;93.20
17986;DHT22;9118;48.122;11.546;2023-06-04T01:19:30;17.30;93.00
17986;DHT22;9118;48.122;11.546;2023-06-04T01:22:07;17.30;92.70
17986;DHT22;9118;48.122;11.546;2023-06-04T01:24:43;17.30;92.70
17986;DHT22;9118;48.122;11.546;2023-06-04T01:27:14;17.20;92.70
17986;DHT22;9118;48.122;11.546;2023-06-04T01:29:42;17.20;92.70
17986;DHT22;9118;48.122;11.546;2023-06-04T01:32:10;17.20;92.70
17986;DHT22;9118;48.122;11.546;2023-06-04T01:34:44;17.10;92.40
17986;DHT22;9118;48.122;11.546;2023-06-04T01:37:11;17.20;92.30
17986;DHT22;9118;48.122;11.546;2023-06-04T01:39:38;17.10;92.10
17986;DHT22;9118;48.122;11.546;2023-06-04T01:42:05;17.10;92.20
17986;DHT22;9118;48.122;11.546;2023-06-04T01:44:34;17.00;91.60
17986;DHT22;9118;48.122;11.546;2023-06-04T01:47:01;17.20;91.90
17986;DHT22;9118;48.122;11.546;2023-06-04T01:49:28;17.10;91.90
17986;DHT22;9118;48.122;11.546;2023-06-04T01:51:55;17.40;92.10
17986;DHT22;9118;48.122;11.546;2023-06-04T01:54:22;16.90;91.80
17986;DHT22;9118;48.122;11.546;2023-06-04T01:56:49;16.70;91.30
17986;DHT22;9118;48.122;11.546;2023-06-04T01:59:16;16.70;91.50
17986;DHT22;9118;48.122;11.546;2023-06-04T02:01:45;16.70;91.20
17986;DHT22;9118;48.122;11.546;2023-06-04T02:04:11;16.60;91.10
17986;DHT22;9118;48.122;11.546;2023-06-04T02:06:39;16.90;91.40
17986;DHT22;9118;48.122;11.546;2023-06-04T02:09:06;16.60;90.80
17986;DHT22;9118;48.122;11.546;2023-06-04T02:11:33;16.60;91.10
17986;DHT22;9118;48.122;11.546;2023-06-04T02:14:00;16.60;91.10
17986;DHT22;9118;48.122;11.546;2023-06-04T02:16:27;16.50;91.20
17986;DHT22;9118;48.122;11.546;2023-06-04T02:18:55;16.50;91.30
17986;DHT22;9118;48.122;11.546;2023-06-04T02:21:22;16.40;91.30
17986;DHT22;9118;48.122;11.546;2023-06-04T02:23:49;16.50;91.40
17986;DHT22;9118;48.122;11.546;2023-06-04T02:26:16;16.40;91.20
17986;DHT22;9118;48.122;11.546;2023-06-04T02:28:43;16.40;91.20
17986;DHT22;9118;48.122;11.546;2023-06-04T02:31:10;16.30;91.20
17986;DHT22;9118;48.122;11.546;2023-06-04T02:33:38;16.60;91.20
17986;DHT22;9118;48.122;11.546;2023-06-04T02:36:06;16.30;90.80
17986;DHT22;9118;48.122;11.546;2023-06-04T02:38:34;16.20;90.70
17986;DHT22;9118;48.122;11.546;2023-06-04T02:41:01;16.20;91.20
17986;DHT22;9118;48.122;11.546;2023-06-04T02:43:28;16.20;91.20
17986;DHT22;9118;48.122;11.546;2023-06-04T02:45:55;16.20;90.80
17986;DHT22;9118;48.122;11.546;2023-06-04T02:48:22;16.30;90.70
17986;DHT22;9118;48.122;11.546;2023-06-04T02:50:49;16.20;90.90
17986;DHT22;9118;48.122;11.546;2023-06-04T02:53:17;16.20;91.20
17986;DHT22;9118;48.122;11.546;2023-06-04T02:55:46;16.20;90.70
17986;DHT22;9118;48.122;11.546;2023-06-04T02:58:13;16.10;91.10
17986;DHT22;9118;48.122;11.546;2023-06-04T03:00:41;16.50;91.00
17986;DHT22;9118;48.122;11.546;2023-06-04T03:03:08;16.20;91.10
17986;DHT22;9118;48.122;11.546;2023-06-04T03:05:35;16.30;91.20
17986;DHT22;9118;48.122;11.546;2023-06-04T03:08:05;16.20;91.00
17986;DHT22;9118;48.122;11.546;2023-06-04T03:10:33;16.20;91.10
17986;DHT22;9118;48.122;11.546;2023-06-04T03:13:00;16.10;91.30
17986;DHT22;9118;48.122;11.546;2023-06-04T03:15:27;16.10;91.60
17986;DHT22;9118;48.122;11.546;2023-06-04T03:17:54;16.10;91.40
17986;DHT22;9118;48.122;11.546;2023-06-04T03:20:22;16.10;91.50
17986;DHT22;9118;48.122;11.546;2023-06-04T03:22:49;16.30;91.50
17986;DHT22;9118;48.122;11.546;2023-06-04T03:25:17;16.00;91.40
17986;DHT22;9118;48.122;11.546;2023-06-04T03:27:45;16.00;91.40
17986;DHT22;9118;48.122;11.546;2023-06-04T03:30:12;16.10;91.90
17986;DHT22;9118;48.122;11.546;2023-06-04T03:32:40;15.90;91.40
17986;DHT22;9118;48.122;11.546;2023-06-04T03:35:08;15.90;91.50
17986;DHT22;9118;48.122;11.546;2023-06-04T03:37:35;15.90;91.60
17986;DHT22;9118;48.122;11.546;2023-06-04T03:40:02;15.90;92.10
17986;DHT22;9118;48.122;11.546;2023-06-04T03:42:31;15.80;91.60
17986;DHT22;9118;48.122;11.546;2023-06-04T03:45:00;15.60;92.60
17986;DHT22;9118;48.122;11.546;2023-06-04T03:47:27;15.80;92.80
17986;DHT22;9118;48.122;11.546;2023-06-04T03:49:54;15.90;93.10
17986;DHT22;9118;48.122;11.546;2023-06-04T03:52:21;16.20;93.30
17986;DHT22;9118;48.122;11.546;2023-06-04T03:54:47;15.70;93.00
17986;DHT22;9118;48.122;11.546;2023-06-04T03:57:15;15.70;92.90
17986;DHT22;9118;48.122;11.546;2023-06-04T03:59:42;15.70;93.00
17986;DHT22;9118;48.122;11.546;2023-06-04T04:02:10;15.90;92.50
17986;DHT22;9118;48.122;11.546;2023-06-04T04:04:37;15.90;92.50
17986;DHT22;9118;48.122;11.546;2023-06-04T04:07:04;15.70;92.20
17986;DHT22;9118;48.122;11.546;2023-06-04T04:09:32;15.90;92.40
17986;DHT22;9118;48.122;11.546;2023-06-04T04:11:59;15.80;92.10
17986;DHT22;9118;48.122;11.546;2023-06-04T04:14:26;15.90;92.00
17986;DHT22;9118;48.122;11.546;2023-06-04T04:16:53;16.00;91.90
17986;DHT22;9118;48.122;11.546;2023-06-04T04:19:21;15.70;91.70
17986;DHT22;9118;48.122;11.546;2023-06-04T04:21:48;16.10;91.50
17986;DHT22;9118;48.122;11.546;2023-06-04T04:24:22;16.10;91.20
17986;DHT22;9118;48.122;11.546;2023-06-04T04:26:49;16.10;90.40
17986;DHT22;9118;48.122;11.546;2023-06-04T04:29:19;16.10;90.50
17986;DHT22;9118;48.122;11.546;2023-06-04T04:31:48;16.10;90.30
17986;DHT22;9118;48.122;11.546;2023-06-04T04:34:15;16.20;90.40
17986;DHT22;9118;48.122;11.546;2023-06-04T04:36:44;16.20;90.40
17986;DHT22;9118;48.122;11.546;2023-06-04T04:39:17;16.20;90.30
17986;DHT22;9118;48.122;11.546;2023-06-04T04:41:44;16.30;89.80
17986;DHT22;9118;48.122;11.546;2023-06-04T04:44:11;16.40;90.20
17986;DHT22;9118;48.122;11.546;2023-06-04T04:46:38;16.40;90.60
17986;DHT22;9118;48.122;11.546;2023-06-04T04:49:05;16.40;90.40
17986;DHT22;9118;48.122;11.546;2023-06-04T04:51:32;16.50;90.40
17986;DHT22;9118;48.122;11.546;2023-06-04T04:54:01;16.50;90.00
17986;DHT22;9118;48.122;11.546;2023-06-04T04:56:28;16.60;90.10
17986;DHT22;9118;48.122;11.546;2023-06-04T04:58:55;16.60;89.00
17986;DHT22;9118;48.122;11.546;2023-06-04T05:01:22;16.00;89.00
17986;DHT22;9118;48.122;11.546;2023-06-04T05:03:51;16.60;89.30
17986;DHT22;9118;48.122;11.546;2023-06-04T05:06:18;16.60;89.10
17986;DHT22;9118;48.122;11.546;2023-06-04T05:08:45;16.80;89.40
17986;DHT22;9118;48.122;11.546;2023-06-04T05:11:13;16.80;88.30
17986;DHT22;9118;48.122;11.546;2023-06-04T05:13:40;16.80;89.10
17986;DHT22;9118;48.122;11.546;2023-06-04T05:16:07;16.80;88.80
17986;DHT22;9118;48.122;11.546;2023-06-04T05:18:37;16.90;89.60
17986;DHT22;9118;48.122;11.546;2023-06-04T05:21:06;16.90;87.80
17986;DHT22;9118;48.122;11.546;2023-06-04T05:23:33;17.00;88.50
17986;DHT22;9118;48.122;11.546;2023-06-04T05:26:02;17.00;87.60
17986;DHT22;9118;48.122;11.546;2023-06-04T05:28:32;17.00;87.10
17986;DHT22;9118;48.122;11.546;2023-06-04T05:30:59;17.00;88.00
17986;DHT22;9118;48.122;11.546;2023-06-04T05:33:26;17.10;87.00
17986;DHT22;9118;48.122;11.546;2023-06-04T05:35:54;17.20;86.70
17986;DHT22;9118;48.122;11.546;2023-06-04T05:38:23;17.20;87.10
17986;DHT22;9118;48.122;11.546;2023-06-04T05:40:51;17.20;87.30
17986;DHT22;9118;48.122;11.546;2023-06-04T05:43:18;17.20;88.10
17986;DHT22;9118;48.122;11.546;2023-06-04T05:45:47;17.30;86.50
17986;DHT22;9118;48.122;11.546;2023-06-04T05:48:15;17.30;86.40
17986;DHT22;9118;48.122;11.546;2023-06-04T05:50:42;17.40;87.70
17986;DHT22;9118;48.122;11.546;2023-06-04T05:53:10;17.30;87.70
17986;DHT22;9118;48.122;11.546;2023-06-04T05:55:37;17.40;86.30
17986;DHT22;9118;48.122;11.546;2023-06-04T05:58:04;17.40;86.60
17986;DHT22;9118;48.122;11.546;2023-06-04T06:00:31;17.30;86.90
17986;DHT22;9118;48.122;11.546;2023-06-04T06:03:00;17.40;86.60
17986;DHT22;9118;48.122;11.546;2023-06-04T06:05:27;17.40;86.90
17986;DHT22;9118;48.122;11.546;2023-06-04T06:07:54;17.70;86.80
17986;DHT22;9118;48.122;11.546;2023-06-04T06:10:21;17.70;86.00
17986;DHT22;9118;48.122;11.546;2023-06-04T06:12:48;17.60;86.40
17986;DHT22;9118;48.122;11.546;2023-06-04T06:15:15;18.20;86.10
17986;DHT22;9118;48.122;11.546;2023-06-04T06:17:42;17.70;86.30
17986;DHT22;9118;48.122;11.546;2023-06-04T06:20:11;17.70;86.20
17986;DHT22;9118;48.122;11.546;2023-06-04T06:22:43;17.90;85.60
17986;DHT22;9118;48.122;11.546;2023-06-04T06:25:10;17.80;85.80
17986;DHT22;9118;48.122;11.546;2023-06-04T06:27:38;17.90;85.40
17986;DHT22;9118;48.122;11.546;2023-06-04T06:30:08;18.00;85.90
17986;DHT22;9118;48.122;11.546;2023-06-04T06:32:35;18.40;86.30
17986;DHT22;9118;48.122;11.546;2023-06-04T06:35:02;18.00;86.70
17986;DHT22;9118;48.122;11.546;2023-06-04T06:37:31;18.00;85.40
17986;DHT22;9118;48.122;11.546;2023-06-04T06:39:58;18.00;85.80
17986;DHT22;9118;48.122;11.546;2023-06-04T06:42:25;18.20;85.70
17986;DHT22;9118;48.122;11.546;2023-06-04T06:44:52;18.80;85.90
17986;DHT22;9118;48.122;11.546;2023-06-04T06:47:19;18.30;85.40
17986;DHT22;9118;48.122;11.546;2023-06-04T06:49:46;18.40;86.80
17986;DHT22;9118;48.122;11.546;2023-06-04T06:52:13;18.50;85.50
17986;DHT22;9118;48.122;11.546;2023-06-04T06:54:41;18.50;85.50
17986;DHT22;9118;48.122;11.546;2023-06-04T06:57:08;18.50;84.80
17986;DHT22;9118;48.122;11.546;2023-06-04T06:59:35;18.90;85.60
17986;DHT22;9118;48.122;11.546;2023-06-04T07:02:02;18.60;84.80
17986;DHT22;9118;48.122;11.546;2023-06-04T07:04:30;18.70;84.70
17986;DHT22;9118;48.122;11.546;2023-06-04T07:06:57;18.70;85.70
17986;DHT22;9118;48.122;11.546;2023-06-04T07:09:24;18.70;85.40
17986;DHT22;9118;48.122;11.546;2023-06-04T07:11:52;18.90;85.90
17986;DHT22;9118;48.122;11.546;2023-06-04T07:14:20;18.80;84.70
17986;DHT22;9118;48.122;11.546;2023-06-04T07:16:47;18.90;83.60
17986;DHT22;9118;48.122;11.546;2023-06-04T07:19:14;19.00;84.80
17986;DHT22;9118;48.122;11.546;2023-06-04T07:21:41;19.00;84.00
17986;DHT22;9118;48.122;11.546;2023-06-04T07:24:08;19.20;84.30
17986;DHT22;9118;48.122;11.546;2023-06-04T07:26:35;19.30;83.80
17986;DHT22;9118;48.122;11.546;2023-06-04T07:29:04;19.40;84.20
17986;DHT22;9118;48.122;11.546;2023-06-04T07:31:31;19.30;83.80
17986;DHT22;9118;48.122;11.546;2023-06-04T07:34:00;18.90;83.70
17986;DHT22;9118;48.122;11.546;2023-06-04T07:36:27;19.50;83.90
17986;DHT22;9118;48.122;11.546;2023-06-04T07:38:54;19.40;83.50
17986;DHT22;9118;48.122;11.546;2023-06-04T07:41:21;19.70;83.90
17986;DHT22;9118;48.122;11.546;2023-06-04T07:43:48;19.60;83.20
17986;DHT22;9118;48.122;11.546;2023-06-04T07:46:17;19.60;82.70
17986;DHT22;9118;48.122;11.546;2023-06-04T07:48:44;19.70;84.20
17986;DHT22;9118;48.122;11.546;2023-06-04T07:51:13;20.10;82.60
17986;DHT22;9118;48.122;11.546;2023-06-04T07:53:41;19.80;82.60
17986;DHT22;9118;48.122;11.546;2023-06-04T07:56:08;19.80;83.20
17986;DHT22;9118;48.122;11.546;2023-06-04T07:58:37;19.80;83.60
17986;DHT22;9118;48.122;11.546;2023-06-04T08:01:04;19.90;83.60
17986;DHT22;9118;48.122;11.546;2023-06-04T08:03:33;20.00;83.20
17986;DHT22;9118;48.122;11.546;2023-06-04T08:06:00;20.00;82.20
17986;DHT22;9118;48.122;11.546;2023-06-04T08:08:27;20.10;83.40
17986;DHT22;9118;48.122;11.546;2023-06-04T08:10:54;20.10;83.30
17986;DHT22;9118;48.122;11.546;2023-06-04T08:13:21;20.30;84.10
17986;DHT22;9118;48.122;11.546;2023-06-04T08:15:48;20.40;83.20
17986;DHT22;9118;48.122;11.546;2023-06-04T08:18:15;20.60;83.00
17986;DHT22;9118;48.122;11.546;2023-06-04T08:20:44;20.40;82.50
17986;DHT22;9118;48.122;11.546;2023-06-04T08:23:11;20.50;82.30
17986;DHT22;9118;48.122;11.546;2023-06-04T08:25:38;20.60;82.40
17986;DHT22;9118;48.122;11.546;2023-06-04T08:28:05;20.70;82.30
17986;DHT22;9118;48.122;11.546;2023-06-04T08:30:32;20.70;82.30
17986;DHT22;9118;48.122;11.546;2023-06-04T08:33:01;20.90;81.00
17986;DHT22;9118;48.122;11.546;2023-06-04T08:35:28;20.90;81.50
17986;DHT22;9118;48.122;11.546;2023-06-04T08:37:57;21.20;80.90
17986;DHT22;9118;48.122;11.546;2023-06-04T08:40:25;20.90;80.80
17986;DHT22;9118;48.122;11.546;2023-06-04T08:42:55;21.10;80.90
17986;DHT22;9118;48.122;11.546;2023-06-04T08:45:24;21.10;80.50
17986;DHT22;9118;48.122;11.546;2023-06-04T08:47:53;21.10;80.50
17986;DHT22;9118;48.122;11.546;2023-06-04T08:50:22;21.10;80.00
17986;DHT22;9118;48.122;11.546;2023-06-04T08:52:52;21.30;79.70
17986;DHT22;9118;48.122;11.546;2023-06-04T08:55:22;21.30;79.50
17986;DHT22;9118;48.122;11.546;2023-06-04T08:57:52;21.40;80.00
17986;DHT22;9118;48.122;11.546;2023-06-04T09:00:21;21.60;80.40
17986;DHT22;9118;48.122;11.546;2023-06-04T09:02:50;21.80;81.30
17986;DHT22;9118;48.122;11.546;2023-06-04T09:05:20;22.10;81.40
17986;DHT22;9118;48.122;11.546;2023-06-04T09:07:51;21.60;79.20
17986;DHT22;9118;48.122;11.546;2023-06-04T09:10:24;21.50;78.50
17986;DHT22;9118;48.122;11.546;2023-06-04T09:12:54;20.20;78.00
17986;DHT22;9118;48.122;11.546;2023-06-04T09:15:23;21.60;78.60
17986;DHT22;9118;48.122;11.546;2023-06-04T09:17:50;21.60;79.60
17986;DHT22;9118;48.122;11.546;2023-06-04T09:20:20;20.80;80.00
17986;DHT22;9118;48.122;11.546;2023-06-04T09:22:47;21.70;78.30
17986;DHT22;9118;48.122;11.546;2023-06-04T09:25:22;21.80;79.20
17986;DHT22;9118;48.122;11.546;2023-06-04T09:27:52;21.90;77.10
17986;DHT22;9118;48.122;11.546;2023-06-04T09:30:21;21.90;77.80
17986;DHT22;9118;48.122;11.546;2023-06-04T09:32:48;22.00;76.70
17986;DHT22;9118;48.122;11.546;2023-06-04T09:35:17;22.10;77.30
17986;DHT22;9118;48.122;11.546;2023-06-04T09:37:52;22.20;76.50
17986;DHT22;9118;48.122;11.546;2023-06-04T09:40:19;22.30;75.30
17986;DHT22;9118;48.122;11.546;2023-06-04T09:42:48;22.30;75.30
17986;DHT22;9118;48.122;11.546;2023-06-04T09:45:28;22.40;75.10
17986;DHT22;9118;48.122;11.546;2023-06-04T09:47:56;22.70;75.50
17986;DHT22;9118;48.122;11.546;2023-06-04T09:50:25;22.50;74.80
17986;DHT22;9118;48.122;11.546;2023-06-04T09:52:53;22.60;75.30
17986;DHT22;9118;48.122;11.546;2023-06-04T09:55:20;22.60;75.40
17986;DHT22;9118;48.122;11.546;2023-06-04T09:57:48;22.80;73.60
17986;DHT22;9118;48.122;11.546;2023-06-04T10:00:17;22.70;73.40
17986;DHT22;9118;48.122;11.546;2023-06-04T10:02:49;22.40;73.50
17986;DHT22;9118;48.122;11.546;2023-06-04T10:05:16;22.90;75.10
17986;DHT22;9118;48.122;11.546;2023-06-04T10:07:47;22.60;73.60
17986;DHT22;9118;48.122;11.546;2023-06-04T10:10:20;22.50;72.90
17986;DHT22;9118;48.122;11.546;2023-06-04T10:12:50;22.60;73.60
17986;DHT22;9118;48.122;11.546;2023-06-04T10:15:19;22.80;73.10
17986;DHT22;9118;48.122;11.546;2023-06-04T10:17:49;22.90;72.70
17986;DHT22;9118;48.122;11.546;2023-06-04T10:20:17;23.00;73.20
17986;DHT22;9118;48.122;11.546;2023-06-04T10:22:45;23.00;72.90
17986;DHT22;9118;48.122;11.546;2023-06-04T10:25:15;23.10;72.20
17986;DHT22;9118;48.122;11.546;2023-06-04T10:27:43;23.20;71.80
17986;DHT22;9118;48.122;11.546;2023-06-04T10:30:12;23.10;72.00
17986;DHT22;9118;48.122;11.546;2023-06-04T10:32:40;23.40;71.30
17986;DHT22;9118;48.122;11.546;2023-06-04T10:35:09;23.90;72.70
17986;DHT22;9118;48.122;11.546;2023-06-04T10:37:37;24.50;71.90
17986;DHT22;9118;48.122;11.546;2023-06-04T10:40:05;23.70;71.10
17986;DHT22;9118;48.122;11.546;2023-06-04T10:42:38;23.50;69.30
17986;DHT22;9118;48.122;11.546;2023-06-04T10:45:08;23.30;71.40
17986;DHT22;9118;48.122;11.546;2023-06-04T10:47:36;23.80;71.70
17986;DHT22;9118;48.122;11.546;2023-06-04T10:50:12;23.50;71.50
17986;DHT22;9118;48.122;11.546;2023-06-04T10:52:51;23.60;70.00
17986;DHT22;9118;48.122;11.546;2023-06-04T10:55:18;23.70;71.10
17986;DHT22;9118;48.122;11.546;2023-06-04T10:57:52;23.80;70.80
17986;DHT22;9118;48.122;11.546;2023-06-04T11:00:22;23.90;69.20
17986;DHT22;9118;48.122;11.546;2023-06-04T11:03:01;23.80;68.20
17986;DHT22;9118;48.122;11.546;2023-06-04T11:05:35;23.90;70.20
17986;DHT22;9118;48.122;11.546;2023-06-04T11:08:03;23.60;69.80
17986;DHT22;9118;48.122;11.546;2023-06-04T11:10:33;23.70;71.20
17986;DHT22;9118;48.122;11.546;2023-06-04T11:13:02;24.10;70.30
17986;DHT22;9118;48.122;11.546;2023-06-04T11:15:41;23.70;70.80
17986;DHT22;9118;48.122;11.546;2023-06-04T11:18:08;23.60;69.60
17986;DHT22;9118;48.122;11.546;2023-06-04T11:20:43;23.50;70.90
17986;DHT22;9118;48.122;11.546;2023-06-04T11:23:11;23.40;70.50
17986;DHT22;9118;48.122;11.546;2023-06-04T11:25:38;23.40;70.80
17986;DHT22;9118;48.122;11.546;2023-06-04T11:28:06;23.40;72.00
17986;DHT22;9118;48.122;11.546;2023-06-04T11:30:34;23.60;70.60
17986;DHT22;9118;48.122;11.546;2023-06-04T11:33:03;23.90;70.10
17986;DHT22;9118;48.122;11.546;2023-06-04T11:35:30;24.00;70.60
17986;DHT22;9118;48.122;11.546;2023-06-04T11:37:59;24.10;69.00
17986;DHT22;9118;48.122;11.546;2023-06-04T11:40:27;24.20;69.30
17986;DHT22;9118;48.122;11.546;2023-06-04T11:42:54;24.30;69.90
17986;DHT22;9118;48.122;11.546;2023-06-04T11:45:22;24.40;69.20
17986;DHT22;9118;48.122;11.546;2023-06-04T11:47:52;24.60;68.70
17986;DHT22;9118;48.122;11.546;2023-06-04T11:50:21;24.70;67.30
17986;DHT22;9118;48.122;11.546;2023-06-04T11:52:49;24.70;67.80
17986;DHT22;9118;48.122;11.546;2023-06-04T11:55:18;24.70;68.30
17986;DHT22;9118;48.122;11.546;2023-06-04T11:57:46;24.50;67.70
17986;DHT22;9118;48.122;11.546;2023-06-04T12:00:16;24.60;67.70
17986;DHT22;9118;48.122;11.546;2023-06-04T12:02:51;24.50;67.90
17986;DHT22;9118;48.122;11.546;2023-06-04T12:05:22;25.50;68.80
17986;DHT22;9118;48.122;11.546;2023-06-04T12:07:50;24.80;67.10
17986;DHT22;9118;48.122;11.546;2023-06-04T12:10:20;24.90;67.30
17986;DHT22;9118;48.122;11.546;2023-06-04T12:12:56;25.20;67.60
17986;DHT22;9118;48.122;11.546;2023-06-04T12:15:23;25.40;67.50
17986;DHT22;9118;48.122;11.546;2023-06-04T12:17:50;25.30;66.70
17986;DHT22;9118;48.122;11.546;2023-06-04T12:20:18;25.20;66.50
17986;DHT22;9118;48.122;11.546;2023-06-04T12:22:45;25.30;66.30
17986;DHT22;9118;48.122;11.546;2023-06-04T12:25:25;25.20;66.70
17986;DHT22;9118;48.122;11.546;2023-06-04T12:27:53;24.90;65.90
17986;DHT22;9118;48.122;11.546;2023-06-04T12:30:20;25.10;68.10
17986;DHT22;9118;48.122;11.546;2023-06-04T12:32:48;25.10;67.00
17986;DHT22;9118;48.122;11.546;2023-06-04T12:35:16;25.40;66.60
17986;DHT22;9118;48.122;11.546;2023-06-04T12:37:43;25.40;66.50
17986;DHT22;9118;48.122;11.546;2023-06-04T12:40:11;25.30;66.70
17986;DHT22;9118;48.122;11.546;2023-06-04T12:42:40;25.30;65.40
17986;DHT22;9118;48.122;11.546;2023-06-04T12:45:09;25.30;66.30
17986;DHT22;9118;48.122;11.546;2023-06-04T12:47:37;25.40;64.50
17986;DHT22;9118;48.122;11.546;2023-06-04T12:50:05;25.40;65.50
17986;DHT22;9118;48.122;11.546;2023-06-04T12:52:32;24.90;64.80
17986;DHT22;9118;48.122;11.546;2023-06-04T12:55:00;25.00;65.40
17986;DHT22;9118;48.122;11.546;2023-06-04T12:57:27;25.20;65.80
17986;DHT22;9118;48.122;11.546;2023-06-04T12:59:55;25.50;65.40
17986;DHT22;9118;48.122;11.546;2023-06-04T13:02:24;25.10;64.30
17986;DHT22;9118;48.122;11.546;2023-06-04T13:04:52;25.00;64.60
17986;DHT22;9118;48.122;11.546;2023-06-04T13:07:21;24.80;63.90
17986;DHT22;9118;48.122;11.546;2023-06-04T13:09:48;24.80;64.40
17986;DHT22;9118;48.122;11.546;2023-06-04T13:12:16;25.10;65.00
17986;DHT22;9118;48.122;11.546;2023-06-04T13:14:43;25.40;63.40
17986;DHT22;9118;48.122;11.546;2023-06-04T13:17:11;25.90;66.30
17986;DHT22;9118;48.122;11.546;2023-06-04T13:19:39;25.40;64.30
17986;DHT22;9118;48.122;11.546;2023-06-04T13:22:06;25.90;63.10
17986;DHT22;9118;48.122;11.546;2023-06-04T13:24:34;25.80;61.60
17986;DHT22;9118;48.122;11.546;2023-06-04T13:27:02;26.10;61.10
17986;DHT22;9118;48.122;11.546;2023-06-04T13:29:29;26.40;60.60
17986;DHT22;9118;48.122;11.546;2023-06-04T13:31:59;25.60;59.80
17986;DHT22;9118;48.122;11.546;2023-06-04T13:34:27;26.40;59.70
17986;DHT22;9118;48.122;11.546;2023-06-04T13:36:57;26.60;59.80
17986;DHT22;9118;48.122;11.546;2023-06-04T13:39:24;26.80;59.70
17986;DHT22;9118;48.122;11.546;2023-06-04T13:41:51;27.20;59.80
17986;DHT22;9118;48.122;11.546;2023-06-04T13:44:18;27.30;59.70
17986;DHT22;9118;48.122;11.546;2023-06-04T13:46:46;27.40;59.00
17986;DHT22;9118;48.122;11.546;2023-06-04T13:49:13;27.50;59.20
17986;DHT22;9118;48.122;11.546;2023-06-04T13:51:41;27.90;59.40
17986;DHT22;9118;48.122;11.546;2023-06-04T13:54:08;27.90;59.50
17986;DHT22;9118;48.122;11.546;2023-06-04T13:56:35;28.30;57.90
17986;DHT22;9118;48.122;11.546;2023-06-04T13:59:02;29.10;59.70
17986;DHT22;9118;48.122;11.546;2023-06-04T14:01:29;28.40;57.40
17986;DHT22;9118;48.122;11.546;2023-06-04T14:03:56;28.10;57.40
17986;DHT22;9118;48.122;11.546;2023-06-04T14:06:24;28.80;56.80
17986;DHT22;9118;48.122;11.546;2023-06-04T14:08:52;30.20;57.10
17986;DHT22;9118;48.122;11.546;2023-06-04T14:11:19;32.30;54.50
17986;DHT22;9118;48.122;11.546;2023-06-04T14:13:46;34.70;52.70
17986;DHT22;9118;48.122;11.546;2023-06-04T14:16:14;36.50;52.30
17986;DHT22;9118;48.122;11.546;2023-06-04T14:18:41;36.30;50.90
17986;DHT22;9118;48.122;11.546;2023-06-04T14:21:08;35.60;50.70
17986;DHT22;9118;48.122;11.546;2023-06-04T14:23:35;34.50;51.10
17986;DHT22;9118;48.122;11.546;2023-06-04T14:26:03;33.60;52.50
17986;DHT22;9118;48.122;11.546;2023-06-04T14:28:31;32.70;53.40
17986;DHT22;9118;48.122;11.546;2023-06-04T14:30:58;32.00;54.30
17986;DHT22;9118;48.122;11.546;2023-06-04T14:33:25;31.30;54.00
17986;DHT22;9118;48.122;11.546;2023-06-04T14:35:52;31.10;54.90
17986;DHT22;9118;48.122;11.546;2023-06-04T14:38:19;31.30;54.40
17986;DHT22;9118;48.122;11.546;2023-06-04T14:40:46;31.00;54.90
17986;DHT22;9118;48.122;11.546;2023-06-04T14:43:15;29.90;55.30
17986;DHT22;9118;48.122;11.546;2023-06-04T14:45:42;29.20;57.10
17986;DHT22;9118;48.122;11.546;2023-06-04T14:48:09;29.00;57.80
17986;DHT22;9118;48.122;11.546;2023-06-04T14:50:36;29.00;57.90
17986;DHT22;9118;48.122;11.546;2023-06-04T14:53:03;28.60;57.20
17986;DHT22;9118;48.122;11.546;2023-06-04T14:55:32;28.50;57.80
17986;DHT22;9118;48.122;11.546;2023-06-04T14:57:59;29.10;57.30
17986;DHT22;9118;48.122;11.546;2023-06-04T15:00:30;31.20;57.40
17986;DHT22;9118;48.122;11.546;2023-06-04T15:02:57;34.60;53.00
17986;DHT22;9118;48.122;11.546;2023-06-04T15:05:25;37.20;50.10
17986;DHT22;9118;48.122;11.546;2023-06-04T15:07:52;37.20;48.70
17986;DHT22;9118;48.122;11.546;2023-06-04T15:10:19;37.00;49.50
17986;DHT22;9118;48.122;11.546;2023-06-04T15:12:46;35.70;50.50
17986;DHT22;9118;48.122;11.546;2023-06-04T15:15:13;34.80;52.90
17986;DHT22;9118;48.122;11.546;2023-06-04T15:17:42;34.50;51.70
17986;DHT22;9118;48.122;11.546;2023-06-04T15:20:09;34.60;52.50
17986;DHT22;9118;48.122;11.546;2023-06-04T15:22:36;34.80;51.50
17986;DHT22;9118;48.122;11.546;2023-06-04T15:25:04;35.10;50.90
17986;DHT22;9118;48.122;11.546;2023-06-04T15:27:31;35.10;51.10
17986;DHT22;9118;48.122;11.546;2023-06-04T15:29:58;34.30;50.70
17986;DHT22;9118;48.122;11.546;2023-06-04T15:32:25;33.40;51.70
17986;DHT22;9118;48.122;11.546;2023-06-04T15:34:54;33.00;54.20
17986;DHT22;9118;48.122;11.546;2023-06-04T15:37:23;32.60;54.10